Time;durP1;ratioP1;P1;durP2;ratioP2;P2;SDS_P1;SDS_P2;PMS_P1;PMS_P2;Temp;Humidity;BMP_temperature;BMP_pressure;BME280_temperature;BME280_humidity;BME280_pressure;Samples;Min_cycle;Max_cycle;Signal;HPM_P1;HPM_P2
2021/07/28 00:00:35;;;;;;;2.95;2.65;;;24.00;72.40;;;;;;5054695;28;20045;-51
2021/07/28 00:03:01;;;;;;;3.03;2.70;;;24.00;72.40;;;;;;5054450;28;20061;-47
2021/07/28 00:05:27;;;;;;;3.17;2.88;;;24.00;72.40;;;;;;5054280;28;20094;-50
2021/07/28 00:07:53;;;;;;;2.63;2.42;;;24.00;72.40;;;;;;5053292;28;20052;-47
2021/07/28 00:10:19;;;;;;;2.97;2.67;;;23.90;72.40;;;;;;5054224;28;20583;-53
2021/07/28 00:12:45;;;;;;;3.67;3.10;;;23.90;72.30;;;;;;5053930;28;20037;-53
2021/07/28 00:15:11;;;;;;;6.25;3.08;;;23.90;72.30;;;;;;5054352;28;20045;-49
2021/07/28 00:17:43;;;;;;;3.40;2.85;;;23.90;72.30;;;;;;5053824;28;20155;-51
2021/07/28 00:20:16;;;;;;;3.30;2.97;;;23.90;72.30;;;;;;5054073;28;20481;-52
2021/07/28 00:25:26;;;;;;;2.53;2.30;;;23.90;72.40;;;;;;5053712;28;20041;-50
2021/07/28 00:27:52;;;;;;;3.67;2.85;;;23.90;72.30;;;;;;5053803;28;20515;-48
2021/07/28 00:30:18;;;;;;;3.42;2.95;;;23.90;72.40;;;;;;5053627;28;20049;-52
2021/07/28 00:32:45;;;;;;;2.58;2.38;;;23.90;72.40;;;;;;5053703;28;20064;-55
2021/07/28 00:35:11;;;;;;;2.70;2.50;;;23.90;72.40;;;;;;5053585;28;20080;-53
2021/07/28 00:37:37;;;;;;;3.00;2.67;;;23.90;72.40;;;;;;5053854;28;20156;-55
2021/07/28 00:40:03;;;;;;;3.15;2.63;;;23.90;72.40;;;;;;5053586;28;20060;-50
2021/07/28 00:42:30;;;;;;;2.80;2.53;;;23.90;72.40;;;;;;5053520;28;20095;-54
2021/07/28 00:44:56;;;;;;;3.00;2.70;;;23.90;72.40;;;;;;5053854;28;20071;-50
2021/07/28 00:47:21;;;;;;;2.80;2.50;;;23.90;72.40;;;;;;5052446;28;20095;-54
2021/07/28 00:49:48;;;;;;;3.08;2.50;;;23.90;72.40;;;;;;5052901;28;20135;-52
2021/07/28 00:52:14;;;;;;;2.88;2.58;;;23.90;72.50;;;;;;5053595;28;20099;-54
2021/07/28 00:54:40;;;;;;;3.35;3.00;;;23.90;72.40;;;;;;5052809;28;20059;-54
2021/07/28 00:57:07;;;;;;;2.85;2.65;;;23.90;72.40;;;;;;5053084;28;20543;-55
2021/07/28 00:59:33;;;;;;;3.20;2.85;;;23.90;72.50;;;;;;5052770;28;20076;-52
2021/07/28 01:01:59;;;;;;;3.03;2.63;;;23.90;72.50;;;;;;5053377;28;20052;-54
2021/07/28 01:04:25;;;;;;;3.30;3.00;;;23.90;72.50;;;;;;5052540;28;20405;-52
2021/07/28 01:06:51;;;;;;;2.88;2.53;;;23.90;72.50;;;;;;5053399;28;20056;-54
2021/07/28 01:09:17;;;;;;;3.28;2.97;;;23.90;72.50;;;;;;5053104;28;20045;-53
2021/07/28 01:11:42;;;;;;;2.95;2.63;;;23.90;72.50;;;;;;5052888;28;20053;-53
2021/07/28 01:14:08;;;;;;;2.92;2.65;;;23.90;72.50;;;;;;5053025;28;20040;-52
2021/07/28 01:16:38;;;;;;;3.10;2.72;;;23.90;72.50;;;;;;5052991;28;20128;-54
2021/07/28 01:19:09;;;;;;;3.20;2.85;;;23.90;72.50;;;;;;5052442;28;20072;-52
2021/07/28 01:21:36;;;;;;;2.92;2.58;;;23.90;72.50;;;;;;5053020;28;20045;-53
2021/07/28 01:24:03;;;;;;;3.35;2.92;;;23.90;72.50;;;;;;5052879;28;20086;-49
2021/07/28 01:26:29;;;;;;;2.60;2.40;;;23.90;72.50;;;;;;5052725;28;20217;-53
2021/07/28 01:28:56;;;;;;;2.85;2.55;;;23.90;72.50;;;;;;5052339;28;20493;-50
2021/07/28 01:31:22;;;;;;;3.15;2.67;;;23.90;72.50;;;;;;5053005;28;20123;-52
2021/07/28 01:33:49;;;;;;;3.20;2.70;;;23.90;72.50;;;;;;5052529;28;20053;-51
2021/07/28 01:36:17;;;;;;;2.75;2.53;;;23.80;72.50;;;;;;5052811;28;20493;-53
2021/07/28 01:38:43;;;;;;;2.85;2.50;;;23.80;72.50;;;;;;5052323;28;20052;-54
2021/07/28 01:41:10;;;;;;;2.65;2.45;;;23.80;72.50;;;;;;5052574;28;20045;-53
2021/07/28 01:43:36;;;;;;;2.83;2.60;;;23.80;72.50;;;;;;5052009;28;20099;-53
2021/07/28 01:46:03;;;;;;;3.05;2.70;;;23.80;72.50;;;;;;5052214;28;20485;-51
2021/07/28 01:48:29;;;;;;;2.70;2.50;;;23.80;72.50;;;;;;5052648;28;20044;-52
2021/07/28 01:50:55;;;;;;;2.80;2.60;;;23.80;72.50;;;;;;5051986;28;20484;-51
2021/07/28 01:53:22;;;;;;;2.85;2.53;;;23.80;72.50;;;;;;5052524;28;20160;-52
2021/07/28 01:55:49;;;;;;;2.72;2.40;;;23.80;72.50;;;;;;5052464;28;20045;-52
2021/07/28 01:58:15;;;;;;;2.63;2.42;;;23.80;72.50;;;;;;5052123;28;20102;-50
2021/07/28 02:00:41;;;;;;;2.90;2.60;;;23.80;72.50;;;;;;5052001;28;20068;-53
2021/07/28 02:03:08;;;;;;;3.40;2.88;;;23.80;72.50;;;;;;5051972;28;20057;-52
2021/07/28 02:05:36;;;;;;;2.72;2.30;;;23.80;72.50;;;;;;5050714;28;20085;-49
2021/07/28 02:08:07;;;;;;;3.63;3.05;;;23.80;72.50;;;;;;5047315;28;20062;-54
2021/07/28 02:10:38;;;;;;;3.58;2.80;;;23.80;72.60;;;;;;5050699;28;20049;-51
2021/07/28 02:13:05;;;;;;;3.20;2.90;;;23.70;72.50;;;;;;5052209;28;20052;-50
2021/07/28 02:15:32;;;;;;;2.80;2.55;;;23.80;72.60;;;;;;5051280;28;20045;-54
2021/07/28 02:17:59;;;;;;;2.75;2.35;;;23.80;72.60;;;;;;5052018;28;20492;-53
2021/07/28 02:20:26;;;;;;;2.88;2.58;;;23.80;72.60;;;;;;5052442;28;20174;-53
2021/07/28 02:22:53;;;;;;;2.83;2.63;;;23.80;72.60;;;;;;5051799;28;20056;-49
2021/07/28 02:25:19;;;;;;;2.85;2.55;;;23.70;72.50;;;;;;5051790;28;20041;-52
2021/07/28 02:27:45;;;;;;;3.60;3.00;;;23.70;72.50;;;;;;5052140;28;20098;-50
2021/07/28 02:30:13;;;;;;;3.42;2.58;;;23.80;72.60;;;;;;5051798;28;20060;-54
2021/07/28 02:32:40;;;;;;;3.33;2.92;;;23.70;72.50;;;;;;5051329;28;20072;-54
2021/07/28 02:35:07;;;;;;;2.97;2.63;;;23.80;72.60;;;;;;5052322;28;20045;-54
2021/07/28 02:37:34;;;;;;;3.00;2.80;;;23.70;72.50;;;;;;5052562;28;20068;-54
2021/07/28 02:40:00;;;;;;;2.83;2.63;;;23.70;72.60;;;;;;5052528;28;20587;-52
2021/07/28 02:42:26;;;;;;;3.30;3.00;;;23.70;72.60;;;;;;5052159;28;20471;-48
2021/07/28 02:44:52;;;;;;;3.60;2.78;;;23.70;72.60;;;;;;5052366;28;20049;-54
2021/07/28 02:47:18;;;;;;;3.28;2.92;;;23.70;72.60;;;;;;5051822;28;20452;-54
2021/07/28 02:49:43;;;;;;;3.30;3.00;;;23.70;72.60;;;;;;5052366;28;20094;-52
2021/07/28 02:52:09;;;;;;;3.10;2.80;;;23.70;72.70;;;;;;5052387;28;20099;-54
2021/07/28 02:54:35;;;;;;;3.20;2.72;;;23.70;72.60;;;;;;5052298;28;20102;-55
2021/07/28 02:57:01;;;;;;;3.55;2.78;;;23.70;72.70;;;;;;5051933;28;20049;-51
2021/07/28 02:59:26;;;;;;;3.10;2.80;;;23.70;72.70;;;;;;5052318;28;20548;-53
2021/07/28 03:01:52;;;;;;;3.33;2.70;;;23.70;72.60;;;;;;5051974;28;20116;-54
2021/07/28 03:04:19;;;;;;;3.17;2.65;;;23.70;72.60;;;;;;5051425;28;20497;-54
2021/07/28 03:06:45;;;;;;;3.42;3.00;;;23.70;72.70;;;;;;5052175;28;20119;-52
2021/07/28 03:09:11;;;;;;;3.13;2.70;;;23.80;72.70;;;;;;5052219;28;20052;-53
2021/07/28 03:11:37;;;;;;;3.15;2.85;;;23.70;72.70;;;;;;5052106;28;20049;-55
2021/07/28 03:14:03;;;;;;;3.13;2.72;;;23.70;72.70;;;;;;5052248;28;20045;-55
2021/07/28 03:16:29;;;;;;;3.67;3.30;;;23.70;72.70;;;;;;5051471;28;20049;-54
2021/07/28 03:18:55;;;;;;;5.43;2.97;;;23.70;72.70;;;;;;5051746;28;20053;-55
2021/07/28 03:21:21;;;;;;;3.22;2.90;;;23.70;73.40;;;;;;5052844;28;20099;-55
2021/07/28 03:23:46;;;;;;;3.28;2.72;;;23.70;72.70;;;;;;5055710;28;20110;-55
2021/07/28 03:26:12;;;;;;;3.47;3.00;;;23.70;72.70;;;;;;5055134;28;20051;-54
2021/07/28 03:28:38;;;;;;;3.20;2.88;;;23.70;72.80;;;;;;5055693;28;20405;-55
2021/07/28 03:31:04;;;;;;;3.58;3.10;;;23.70;72.70;;;;;;5055428;28;20045;-55
2021/07/28 03:33:29;;;;;;;3.20;2.90;;;23.70;72.70;;;;;;5055478;28;20132;-55
2021/07/28 03:35:56;;;;;;;3.28;2.97;;;23.70;72.70;;;;;;5054605;28;20060;-55
2021/07/28 03:38:21;;;;;;;5.50;2.88;;;23.70;72.70;;;;;;5054907;28;20478;-53
2021/07/28 03:40:47;;;;;;;3.38;2.80;;;23.70;72.70;;;;;;5054686;28;20049;-48
2021/07/28 03:43:15;;;;;;;3.15;2.78;;;23.60;72.70;;;;;;5054328;28;20557;-55
2021/07/28 03:45:41;;;;;;;3.33;2.92;;;23.70;72.80;;;;;;5054992;28;20440;-55
2021/07/28 03:48:08;;;;;;;2.60;2.40;;;23.70;73.40;;;;;;5054521;28;20045;-55
2021/07/28 03:50:33;;;;;;;3.05;2.75;;;23.70;72.80;;;;;;5055256;28;20130;-55
2021/07/28 03:53:03;;;;;;;2.90;2.60;;;23.70;72.70;;;;;;5055294;28;20485;-55
2021/07/28 03:55:29;;;;;;;2.92;2.63;;;23.70;72.80;;;;;;5055547;28;20128;-54
2021/07/28 03:57:56;;;;;;;3.25;2.70;;;23.70;72.80;;;;;;5054421;28;20068;-55
2021/07/28 04:00:22;;;;;;;3.22;2.90;;;23.60;72.80;;;;;;5054682;28;20080;-53
2021/07/28 04:02:48;;;;;;;3.85;2.75;;;23.70;72.80;;;;;;5054972;28;20076;-54
2021/07/28 04:05:14;;;;;;;3.53;2.80;;;23.60;72.80;;;;;;5054288;28;20045;-54
2021/07/28 04:07:41;;;;;;;3.20;2.90;;;23.60;72.80;;;;;;5054206;28;20135;-53
2021/07/28 04:10:07;;;;;;;3.17;2.85;;;23.60;72.80;;;;;;5055177;28;20049;-54
2021/07/28 04:12:33;;;;;;;3.35;3.05;;;23.70;72.80;;;;;;5054925;28;20049;-54
2021/07/28 04:14:58;;;;;;;3.75;3.10;;;23.60;72.80;;;;;;5054821;28;20118;-54
2021/07/28 04:17:24;;;;;;;3.88;2.80;;;23.60;72.80;;;;;;5054435;28;20041;-52
2021/07/28 04:19:50;;;;;;;3.17;2.88;;;23.60;72.80;;;;;;5053686;28;20055;-54
2021/07/28 04:22:17;;;;;;;3.10;2.40;;;23.60;72.80;;;;;;5054772;28;20060;-54
2021/07/28 04:24:42;;;;;;;3.10;2.80;;;23.60;72.80;;;;;;5054962;28;20055;-53
2021/07/28 04:27:08;;;;;;;3.22;2.67;;;23.60;72.80;;;;;;5053386;28;20470;-55
2021/07/28 04:29:34;;;;;;;3.35;2.75;;;23.60;72.80;;;;;;5054337;28;20049;-55
2021/07/28 04:32:01;;;;;;;3.97;2.92;;;23.60;72.80;;;;;;5054709;28;20106;-55
2021/07/28 04:34:27;;;;;;;2.67;2.47;;;23.60;72.90;;;;;;5053243;28;20049;-53
2021/07/28 04:36:53;;;;;;;3.20;2.90;;;23.60;72.90;;;;;;5053536;28;20052;-54
2021/07/28 04:39:19;;;;;;;3.53;3.05;;;23.60;72.90;;;;;;5054155;28;20049;-55
2021/07/28 04:41:45;;;;;;;3.25;2.70;;;23.60;72.90;;;;;;5054024;28;20125;-54
2021/07/28 04:44:10;;;;;;;3.40;2.80;;;23.60;72.90;;;;;;5054171;28;20049;-55
2021/07/28 04:46:36;;;;;;;3.35;2.97;;;23.60;72.90;;;;;;5054251;28;20400;-54
2021/07/28 04:49:02;;;;;;;3.60;3.20;;;23.60;72.90;;;;;;5053630;28;20048;-52
2021/07/28 04:51:28;;;;;;;3.15;2.85;;;23.60;72.90;;;;;;5053475;28;20111;-48
2021/07/28 04:53:53;;;;;;;3.50;2.88;;;23.60;72.90;;;;;;5054367;28;20055;-50
2021/07/28 04:56:19;;;;;;;2.97;2.60;;;23.60;72.90;;;;;;5054317;28;20045;-53
2021/07/28 04:58:45;;;;;;;3.80;3.15;;;23.60;72.90;;;;;;5053684;28;20481;-51
2021/07/28 05:01:11;;;;;;;3.03;2.72;;;23.60;72.90;;;;;;5053666;28;20063;-51
2021/07/28 05:03:37;;;;;;;3.10;2.80;;;23.60;72.90;;;;;;5053620;28;20049;-53
2021/07/28 05:06:03;;;;;;;2.85;2.42;;;23.60;72.90;;;;;;5053604;28;20502;-49
2021/07/28 05:08:29;;;;;;;3.17;2.60;;;23.50;72.90;;;;;;5052995;28;20045;-49
2021/07/28 05:10:55;;;;;;;3.17;2.85;;;23.60;72.90;;;;;;5053960;28;20049;-47
2021/07/28 05:13:20;;;;;;;2.90;2.45;;;23.60;72.90;;;;;;5053110;28;20069;-52
2021/07/28 05:15:49;;;;;;;4.65;2.90;;;23.50;72.90;;;;;;5053139;28;20049;-50
2021/07/28 05:18:16;;;;;;;3.50;2.83;;;23.60;73.00;;;;;;5053592;28;20056;-50
2021/07/28 05:20:42;;;;;;;3.13;2.70;;;23.60;72.90;;;;;;5053509;28;20555;-51
2021/07/28 05:23:08;;;;;;;2.58;2.30;;;23.60;73.00;;;;;;5052701;28;20041;-54
2021/07/28 05:25:33;;;;;;;3.13;2.83;;;23.60;73.00;;;;;;5053722;28;20140;-50
2021/07/28 05:27:59;;;;;;;3.38;2.95;;;23.60;73.00;;;;;;5053049;28;20537;-50
2021/07/28 05:30:27;;;;;;;3.33;2.90;;;23.60;73.00;;;;;;5053330;28;20139;-47
2021/07/28 05:32:53;;;;;;;4.35;3.38;;;23.50;72.90;;;;;;5053142;28;20048;-48
2021/07/28 05:35:19;;;;;;;3.25;2.78;;;23.50;72.90;;;;;;5053157;28;20052;-54
2021/07/28 05:37:45;;;;;;;3.40;3.10;;;23.60;73.00;;;;;;5052660;28;20049;-50
2021/07/28 05:40:14;;;;;;;2.85;2.53;;;23.50;73.00;;;;;;5053292;28;20118;-50
2021/07/28 05:42:40;;;;;;;3.60;2.97;;;23.60;73.00;;;;;;5050947;28;20115;-50
2021/07/28 05:45:07;;;;;;;3.75;2.45;;;23.60;73.00;;;;;;5048897;28;20049;-49
2021/07/28 05:47:33;;;;;;;3.58;2.80;;;23.60;73.00;;;;;;5049282;28;20048;-50
2021/07/28 05:49:58;;;;;;;3.33;3.03;;;23.50;73.70;;;;;;5049189;28;20049;-49
2021/07/28 05:52:25;;;;;;;2.88;2.47;;;23.60;73.00;;;;;;5049066;28;20051;-48
2021/07/28 05:54:50;;;;;;;2.80;2.55;;;23.60;73.00;;;;;;5048765;28;20049;-54
2021/07/28 05:57:16;;;;;;;2.83;2.50;;;23.50;73.10;;;;;;5049271;28;20095;-55
2021/07/28 05:59:42;;;;;;;3.63;2.70;;;23.50;73.00;;;;;;5048236;28;20084;-54
2021/07/28 06:02:10;;;;;;;3.45;2.70;;;23.50;73.00;;;;;;5049174;28;20049;-54
2021/07/28 06:04:35;;;;;;;3.05;2.70;;;23.50;73.00;;;;;;5049034;28;20063;-53
2021/07/28 06:07:01;;;;;;;3.22;2.60;;;23.60;73.00;;;;;;5048554;28;20378;-53
2021/07/28 06:09:27;;;;;;;3.20;2.90;;;23.50;73.00;;;;;;5048387;28;20040;-54
2021/07/28 06:11:53;;;;;;;2.60;2.40;;;23.60;73.10;;;;;;5048202;28;20088;-55
2021/07/28 06:14:18;;;;;;;2.88;2.58;;;23.50;73.00;;;;;;5049251;28;20056;-53
2021/07/28 06:16:44;;;;;;;3.78;2.85;;;23.50;73.00;;;;;;5048781;28;20074;-54
2021/07/28 06:19:10;;;;;;;4.00;3.00;;;23.50;73.00;;;;;;5048659;28;20071;-54
2021/07/28 06:21:35;;;;;;;3.13;2.45;;;23.50;73.00;;;;;;5048856;28;20049;-51
2021/07/28 06:24:01;;;;;;;3.00;2.67;;;23.50;73.00;;;;;;5048589;28;20056;-54
2021/07/28 06:26:28;;;;;;;3.08;2.50;;;23.50;73.00;;;;;;5047181;28;20052;-50
2021/07/28 06:28:53;;;;;;;2.85;2.53;;;23.50;73.00;;;;;;5048354;28;20045;-50
2021/07/28 06:31:19;;;;;;;2.83;2.55;;;23.50;73.00;;;;;;5048505;28;20401;-53
2021/07/28 06:33:45;;;;;;;3.63;2.80;;;23.50;73.00;;;;;;5048702;28;20045;-51
2021/07/28 06:36:10;;;;;;;3.17;2.75;;;23.50;73.00;;;;;;5048701;28;20045;-54
2021/07/28 06:38:37;;;;;;;3.17;2.83;;;23.50;73.10;;;;;;5047944;28;20049;-51
2021/07/28 06:41:02;;;;;;;3.00;2.70;;;23.50;73.00;;;;;;5048175;28;20063;-50
2021/07/28 06:43:28;;;;;;;2.78;2.53;;;23.50;73.00;;;;;;5048488;28;20554;-53
2021/07/28 06:45:58;;;;;;;2.95;2.63;;;23.50;73.00;;;;;;5049256;28;20127;-54
2021/07/28 06:48:23;;;;;;;2.90;2.60;;;23.50;73.00;;;;;;5048102;28;20044;-54
2021/07/28 06:50:49;;;;;;;4.72;2.83;;;23.50;73.00;;;;;;5048338;28;20052;-54
2021/07/28 06:53:15;;;;;;;3.75;3.22;;;23.50;73.00;;;;;;5048572;28;20045;-52
2021/07/28 06:55:40;;;;;;;2.75;2.53;;;23.50;73.10;;;;;;5048548;28;20049;-51
2021/07/28 06:58:06;;;;;;;2.70;2.40;;;23.50;73.00;;;;;;5051480;28;20102;-51
2021/07/28 07:00:33;;;;;;;13.10;11.25;;;23.50;73.00;;;;;;5051246;28;20580;-49
2021/07/28 07:02:59;;;;;;;19.40;13.95;;;23.50;72.20;;;;;;5052301;28;20065;-50
2021/07/28 07:05:26;;;;;;;16.60;13.07;;;23.10;71.10;;;;;;5052583;28;20057;-45
2021/07/28 07:07:52;;;;;;;16.27;13.25;;;22.70;71.60;;;;;;5052287;28;20055;-49
2021/07/28 07:10:18;;;;;;;17.30;13.40;;;22.50;71.80;;;;;;5051458;28;20045;-48
2021/07/28 07:12:44;;;;;;;16.95;14.02;;;22.40;72.00;;;;;;5051437;28;20056;-43
2021/07/28 07:15:10;;;;;;;15.40;11.90;;;22.30;72.40;;;;;;5052121;28;20060;-47
2021/07/28 07:17:36;;;;;;;18.13;12.98;;;22.30;72.60;;;;;;5052056;28;20482;-50
2021/07/28 07:20:02;;;;;;;13.85;11.75;;;22.40;72.80;;;;;;5051857;28;20132;-46
2021/07/28 07:22:28;;;;;;;13.65;10.98;;;22.40;72.80;;;;;;5052304;28;20063;-46
2021/07/28 07:24:54;;;;;;;13.30;11.30;;;22.50;72.90;;;;;;5052036;28;20136;-48
2021/07/28 07:27:20;;;;;;;14.95;11.60;;;22.60;72.90;;;;;;5052337;28;20057;-49
2021/07/28 07:29:46;;;;;;;12.88;11.00;;;22.60;72.90;;;;;;5051665;28;20556;-49
2021/07/28 07:32:12;;;;;;;12.88;11.27;;;22.60;72.90;;;;;;5050609;28;20053;-46
2021/07/28 07:34:38;;;;;;;13.85;11.30;;;22.70;72.90;;;;;;5052109;28;20162;-46
2021/07/28 07:37:03;;;;;;;16.63;11.45;;;22.80;72.90;;;;;;5051438;28;20075;-48
2021/07/28 07:39:31;;;;;;;14.63;11.15;;;22.80;72.90;;;;;;5051776;28;20405;-47
2021/07/28 07:41:56;;;;;;;15.32;11.10;;;22.80;72.80;;;;;;5051091;28;20049;-46
2021/07/28 07:44:22;;;;;;;13.63;10.73;;;22.90;72.90;;;;;;5051420;28;20045;-48
2021/07/28 07:46:48;;;;;;;12.70;10.70;;;22.90;72.80;;;;;;5051275;28;20055;-45
2021/07/28 07:49:13;;;;;;;10.77;9.57;;;22.90;72.80;;;;;;5051742;28;20069;-49
2021/07/28 07:51:39;;;;;;;12.80;9.35;;;22.90;72.80;;;;;;5051001;28;20617;-49
2021/07/28 07:54:05;;;;;;;11.73;9.63;;;23.00;72.80;;;;;;5051790;28;20110;-45
2021/07/28 07:56:30;;;;;;;10.60;9.45;;;23.00;72.80;;;;;;5051437;28;20114;-45
2021/07/28 07:58:56;;;;;;;9.27;8.30;;;23.10;72.80;;;;;;5051183;28;20456;-48
2021/07/28 08:01:22;;;;;;;9.23;7.78;;;23.10;72.80;;;;;;5050824;28;20707;-45
2021/07/28 08:03:47;;;;;;;9.02;8.00;;;23.10;72.80;;;;;;5051114;28;20135;-47
2021/07/28 08:06:13;;;;;;;9.70;7.93;;;23.10;72.80;;;;;;5051607;28;20075;-48
2021/07/28 08:08:39;;;;;;;9.25;7.40;;;23.10;72.80;;;;;;5051158;28;20048;-48
2021/07/28 08:11:15;;;;;;;9.10;7.88;;;23.10;72.80;;;;;;5050380;28;20055;-46
2021/07/28 08:13:41;;;;;;;8.25;7.45;;;23.10;72.80;;;;;;5050910;28;20053;-45
2021/07/28 08:16:18;;;;;;;8.32;7.50;;;23.20;72.80;;;;;;5049956;28;20052;-48
2021/07/28 08:18:45;;;;;;;16.63;8.85;;;23.20;72.80;;;;;;5066354;28;20487;-47
2021/07/28 08:21:12;;;;;;;11.50;7.90;;;23.20;72.60;;;;;;5050567;28;20041;-41
2021/07/28 08:23:39;;;;;;;10.02;7.95;;;23.20;72.50;;;;;;5050204;28;20048;-48
2021/07/28 08:26:05;;;;;;;9.25;7.53;;;23.20;72.50;;;;;;5050919;28;20048;-45
2021/07/28 08:28:31;;;;;;;12.68;7.35;;;23.20;72.50;;;;;;5051270;28;20136;-47
2021/07/28 08:30:57;;;;;;;9.93;7.38;;;23.20;72.40;;;;;;5050177;28;20055;-49
2021/07/28 08:33:26;;;;;;;9.02;7.50;;;23.20;72.30;;;;;;5050952;28;20049;-47
2021/07/28 08:35:56;;;;;;;9.30;7.68;;;23.20;72.30;;;;;;5050407;28;20135;-48
2021/07/28 08:38:23;;;;;;;8.73;7.10;;;23.20;72.30;;;;;;5051693;28;20140;-50
2021/07/28 08:40:55;;;;;;;7.70;6.50;;;23.30;72.30;;;;;;5051011;28;20062;-52
2021/07/28 08:43:26;;;;;;;8.43;6.57;;;23.30;72.30;;;;;;5049133;28;20044;-49
2021/07/28 08:45:54;;;;;;;7.75;6.93;;;23.30;72.30;;;;;;5050363;28;20095;-48
2021/07/28 08:48:22;;;;;;;9.00;6.53;;;23.30;72.30;;;;;;5050114;28;20045;-50
2021/07/28 08:50:49;;;;;;;7.93;6.97;;;23.30;72.30;;;;;;5050012;28;20485;-51
2021/07/28 08:53:15;;;;;;;8.05;6.75;;;23.30;72.30;;;;;;5050032;28;20514;-45
2021/07/28 08:55:40;;;;;;;8.55;6.07;;;23.30;72.20;;;;;;5050400;28;20145;-47
2021/07/28 08:58:11;;;;;;;7.38;6.20;;;23.30;72.20;;;;;;5050479;28;20045;-50
2021/07/28 09:00:46;;;;;;;7.28;6.25;;;23.40;72.30;;;;;;5050187;28;20067;-51
2021/07/28 09:03:13;;;;;;;6.72;5.93;;;23.40;72.30;;;;;;5049385;28;20073;-50
2021/07/28 09:05:47;;;;;;;7.55;6.35;;;23.40;72.30;;;;;;5050414;28;20072;-49
2021/07/28 09:08:32;;;;;;;6.20;5.55;;;23.30;72.20;;;;;;5050488;28;20048;-46
2021/07/28 09:11:03;;;;;;;;;;;23.40;72.30;;;;;;5054421;28;20060;-50
2021/07/28 09:13:38;;;;;;;5.75;5.18;;;23.40;72.20;;;;;;5053683;28;19920;-51
2021/07/28 09:16:07;;;;;;;6.55;5.85;;;23.40;72.30;;;;;;5053601;28;20064;-50
2021/07/28 09:18:45;;;;;;;6.60;5.90;;;23.40;72.30;;;;;;5052660;28;20477;-51
2021/07/28 09:21:19;;;;;;;6.13;5.53;;;23.40;72.30;;;;;;5053307;28;20056;-48
2021/07/28 09:23:47;;;;;;;5.88;5.28;;;23.40;72.30;;;;;;5053240;28;20045;-50
2021/07/28 09:26:39;;;;;;;6.13;5.53;;;23.40;72.30;;;;;;5053819;28;20053;-50
2021/07/28 09:29:19;;;;;;;6.47;5.88;;;23.40;72.20;;;;;;5053148;28;20060;-47
2021/07/28 09:31:53;;;;;;;5.43;4.82;;;23.40;72.20;;;;;;5053158;28;20546;-50
2021/07/28 09:34:21;;;;;;;5.57;5.07;;;23.40;72.30;;;;;;5052461;28;20053;-50
2021/07/28 09:36:55;;;;;;;5.70;5.07;;;23.50;72.30;;;;;;5053252;28;20040;-50
2021/07/28 09:39:35;;;;;;;6.47;5.63;;;23.50;72.30;;;;;;5052757;28;20552;-50
2021/07/28 09:42:13;;;;;;;5.28;4.78;;;23.50;72.30;;;;;;5052867;28;20041;-50
2021/07/28 09:44:45;;;;;;;5.85;4.70;;;23.40;72.20;;;;;;5033342;28;20131;-49
2021/07/28 09:47:13;;;;;;;5.53;4.95;;;23.50;72.20;;;;;;5033217;28;20052;-49
2021/07/28 09:49:41;;;;;;;5.20;4.70;;;23.50;72.30;;;;;;5042797;28;20041;-49
2021/07/28 09:52:26;;;;;;;5.10;4.60;;;23.50;72.30;;;;;;5049219;28;20114;-51
2021/07/28 09:54:54;;;;;;;4.75;4.35;;;23.50;72.30;;;;;;5029606;28;20072;-49
2021/07/28 09:57:25;;;;;;;5.53;4.47;;;23.60;72.30;;;;;;5029274;28;20068;-50
2021/07/28 10:00:04;;;;;;;5.10;4.57;;;23.50;72.30;;;;;;5035923;28;20045;-48
2021/07/28 10:02:31;;;;;;;5.38;4.55;;;23.50;72.20;;;;;;5048818;28;20048;-48
2021/07/28 10:05:01;;;;;;;5.50;4.72;;;23.50;72.20;;;;;;5029025;28;20713;-49
2021/07/28 10:07:28;;;;;;;5.60;4.72;;;23.60;72.30;;;;;;5029370;28;20056;-47
2021/07/28 10:10:07;;;;;;;4.32;3.92;;;23.60;72.30;;;;;;5043335;28;20087;-46
2021/07/28 10:12:36;;;;;;;4.85;4.13;;;23.60;72.30;;;;;;5048748;28;20140;-50
2021/07/28 10:15:03;;;;;;;4.50;3.75;;;23.60;72.30;;;;;;5048884;28;20049;-49
2021/07/28 10:17:31;;;;;;;4.68;4.28;;;23.60;72.20;;;;;;5049086;28;20107;-46
2021/07/28 10:19:58;;;;;;;5.55;4.07;;;23.60;72.20;;;;;;5048940;28;20044;-51
2021/07/28 10:22:24;;;;;;;4.25;3.80;;;23.60;72.20;;;;;;5048160;28;20099;-47
2021/07/28 10:24:51;;;;;;;4.57;4.18;;;23.60;72.20;;;;;;5048378;28;20044;-48
2021/07/28 10:27:17;;;;;;;4.10;3.70;;;23.70;72.30;;;;;;5049105;28;20045;-49
2021/07/28 10:29:43;;;;;;;4.13;3.72;;;23.70;72.20;;;;;;5048808;28;20049;-49
2021/07/28 10:32:28;;;;;;;5.05;4.55;;;23.70;72.30;;;;;;5050032;28;20128;-48
2021/07/28 10:35:25;;;;;;;4.28;3.88;;;23.70;72.10;;;;;;5052596;28;20041;-49
2021/07/28 10:37:52;;;;;;;4.45;3.80;;;23.70;72.10;;;;;;5052914;28;20408;-49
2021/07/28 10:40:24;;;;;;;3.60;3.30;;;23.70;72.10;;;;;;5053002;28;20076;-48
2021/07/28 10:42:53;;;;;;;4.13;3.75;;;23.70;72.10;;;;;;5052545;28;20048;-45
2021/07/28 10:45:19;;;;;;;4.40;4.00;;;23.70;72.10;;;;;;5052047;28;20520;-50
2021/07/28 10:47:46;;;;;;;3.83;3.38;;;23.70;72.00;;;;;;5052985;28;20048;-48
2021/07/28 10:50:24;;;;;;;4.32;3.92;;;23.70;72.00;;;;;;5052822;28;20127;-47
2021/07/28 10:52:54;;;;;;;4.43;3.90;;;23.70;72.00;;;;;;5051856;28;20067;-50
2021/07/28 10:55:25;;;;;;;4.38;3.53;;;23.80;72.10;;;;;;5052578;28;20048;-45
2021/07/28 10:57:54;;;;;;;4.22;3.83;;;23.80;72.00;;;;;;5052486;28;20045;-47
2021/07/28 11:00:35;;;;;;;4.25;3.85;;;23.80;72.00;;;;;;5052555;28;20041;-47
2021/07/28 11:03:01;;;;;;;4.10;3.70;;;23.80;71.90;;;;;;5052468;28;20088;-50
2021/07/28 11:05:31;;;;;;;4.05;3.60;;;23.80;72.00;;;;;;5051971;28;20045;-49
2021/07/28 11:08:02;;;;;;;4.00;3.60;;;23.80;71.90;;;;;;5051934;28;20616;-47
2021/07/28 11:10:32;;;;;;;3.45;3.15;;;23.80;71.90;;;;;;5052500;28;20071;-50
2021/07/28 11:12:59;;;;;;;4.00;3.60;;;23.80;71.90;;;;;;5052363;28;20049;-49
2021/07/28 11:15:25;;;;;;;4.32;3.85;;;23.80;71.80;;;;;;5051793;28;20405;-49
2021/07/28 11:17:57;;;;;;;3.95;3.55;;;23.80;71.80;;;;;;5052204;28;20052;-46
2021/07/28 11:20:26;;;;;;;4.47;3.80;;;23.90;71.80;;;;;;5051344;28;20049;-49
2021/07/28 11:22:51;;;;;;;4.03;3.60;;;23.90;71.80;;;;;;5052097;28;20048;-49
2021/07/28 11:25:17;;;;;;;4.25;3.85;;;23.90;71.70;;;;;;5051426;28;20044;-47
2021/07/28 11:28:07;;;;;;;4.38;3.97;;;23.90;71.70;;;;;;5050855;28;20068;-47
2021/07/28 11:30:33;;;;;;;4.13;3.72;;;23.90;71.70;;;;;;5051595;28;20088;-48
2021/07/28 11:33:16;;;;;;;3.80;3.40;;;23.90;71.70;;;;;;5051524;28;20080;-49
2021/07/28 11:35:42;;;;;;;3.50;3.20;;;23.90;71.60;;;;;;5051845;28;20731;-48
2021/07/28 11:38:19;;;;;;;4.68;4.00;;;23.90;71.70;;;;;;5052078;28;20048;-44
2021/07/28 11:40:46;;;;;;;3.75;3.40;;;23.90;71.60;;;;;;5051210;28;20566;-49
2021/07/28 11:43:22;;;;;;;4.57;3.80;;;23.90;71.60;;;;;;5051048;28;20052;-50
2021/07/28 11:45:51;;;;;;;3.97;3.67;;;23.90;71.60;;;;;;5051327;28;20075;-47
2021/07/28 11:48:41;;;;;;;3.97;3.58;;;23.90;71.60;;;;;;5052016;28;20060;-47
2021/07/28 11:51:16;;;;;;;3.92;3.53;;;23.90;71.50;;;;;;5051164;28;20045;-48
2021/07/28 11:53:42;;;;;;;4.03;3.63;;;23.80;71.50;;;;;;5051757;28;20143;-47
2021/07/28 11:56:16;;;;;;;3.95;3.53;;;23.90;71.60;;;;;;5050850;28;20132;-48
2021/07/28 11:58:51;;;;;;;4.15;3.70;;;23.90;71.50;;;;;;5050699;28;20136;-50
2021/07/28 12:01:29;;;;;;;4.45;3.70;;;23.90;71.50;;;;;;5051085;28;20045;-48
2021/07/28 12:04:03;;;;;;;4.13;3.58;;;23.90;71.50;;;;;;5051080;28;20097;-47
2021/07/28 12:06:29;;;;;;;3.63;3.33;;;23.90;71.50;;;;;;5051592;28;20052;-49
2021/07/28 12:09:05;;;;;;;3.72;3.42;;;23.90;71.50;;;;;;5050750;28;20120;-48
2021/07/28 12:11:52;;;;;;;4.45;3.70;;;23.90;71.50;;;;;;5050498;28;20043;-44
2021/07/28 12:14:41;;;;;;;3.72;3.42;;;23.90;71.40;;;;;;5050996;28;20052;-47
2021/07/28 12:17:16;;;;;;;3.75;3.45;;;23.90;71.40;;;;;;5051333;28;20126;-48
2021/07/28 12:20:05;;;;;;;3.55;3.25;;;23.90;71.40;;;;;;5049478;28;20056;-48
2021/07/28 12:22:42;;;;;;;4.00;3.60;;;23.90;71.40;;;;;;5050644;28;20071;-47
2021/07/28 12:25:22;;;;;;;3.78;3.10;;;23.90;71.50;;;;;;5050977;28;20128;-47
2021/07/28 12:27:55;;;;;;;3.53;3.22;;;23.90;71.40;;;;;;5050782;28;20080;-47
2021/07/28 12:30:22;;;;;;;3.45;3.15;;;23.90;71.40;;;;;;5050387;28;20072;-52
2021/07/28 12:32:58;;;;;;;3.58;3.25;;;23.90;71.40;;;;;;5050035;28;20052;-50
2021/07/28 12:35:33;;;;;;;3.30;3.00;;;23.90;71.40;;;;;;5051082;28;20080;-50
2021/07/28 12:38:05;;;;;;;3.40;3.10;;;23.90;71.40;;;;;;5050951;28;20048;-50
2021/07/28 12:40:31;;;;;;;3.83;3.40;;;23.90;71.40;;;;;;5050642;28;20048;-50
2021/07/28 12:42:57;;;;;;;4.03;3.63;;;24.00;71.50;;;;;;5050155;28;20060;-54
2021/07/28 12:45:23;;;;;;;3.58;3.28;;;23.90;71.40;;;;;;5050154;28;20045;-47
2021/07/28 12:47:49;;;;;;;3.83;2.85;;;23.90;71.40;;;;;;5050968;28;20056;-48
2021/07/28 12:50:15;;;;;;;4.05;3.10;;;23.90;71.40;;;;;;5048593;28;20489;-51
2021/07/28 12:52:43;;;;;;;3.30;3.00;;;23.90;71.40;;;;;;5050102;28;20127;-45